PWSweather.com
Personal Weather Stations
Station Observations
KFLSTJOH36
Aberdeen Highland Point, Saint Johns, FL 32259

Aberdeen Highland PointSaint Johns, FL 32259

Lat: 30.082981, Lon: -81.59522

Elevation: 60

Station Type: Acurite 5-in-1 Weather Sensor

High Low Average
Temperature 90.9°F32.7°C 77.0°F25.0°C 83.6°F28.7°C
Dew Point 82.7°F28.2°C 74.7°F23.7°C 78.9°F26.1°C
Winds 17.0 mph 27.4 kmh Calm Calm 5.0 mph ENE8.0 kmh ENE
Wind Gusts -- -- --
Humidity 95% 73% 86%
Pressure 30.04 in1017.3 mb 29.95 in1014.2 mb -
Precipitation 0.22 in5.6 mm - -
Hour Temp Dew Point Humidity Winds Wind Gusts Pressure Precip Precip Rate Daily Precip Total
12:00 AM 81.7°F27.6°C 79.1°F26.2°C 92% 4.0 mph NNE6.4 kmh NNE -- 30.04 in1017.3 mb 0.00 in0.0 mm 0.00 in0.0 mm 0.00 in0.0 mm
12:05 AM 81.5°F27.5°C 78.9°F26.1°C 92% 2.0 mph NE3.2 kmh NE -- 30.04 in1017.3 mb 0.00 in0.0 mm 0.00 in0.0 mm 0.00 in0.0 mm
12:10 AM 81.3°F27.4°C 78.8°F26.0°C 92% 2.0 mph E3.2 kmh E -- 30.04 in1017.3 mb 0.00 in0.0 mm 0.00 in0.0 mm 0.00 in0.0 mm
12:15 AM 81.5°F27.5°C 78.9°F26.1°C 92% 3.0 mph NW4.8 kmh NW -- 30.04 in1017.3 mb 0.00 in0.0 mm 0.00 in0.0 mm 0.00 in0.0 mm
12:20 AM 81.5°F27.5°C 78.9°F26.1°C 92% 3.0 mph NE4.8 kmh NE -- 30.03 in1016.9 mb 0.00 in0.0 mm 0.00 in0.0 mm 0.00 in0.0 mm
12:25 AM 81.5°F27.5°C 78.9°F26.1°C 92% 3.0 mph NNE4.8 kmh NNE -- 30.04 in1017.3 mb 0.00 in0.0 mm 0.00 in0.0 mm 0.00 in0.0 mm
12:30 AM 81.5°F27.5°C 78.9°F26.1°C 92% 2.0 mph NNE3.2 kmh NNE -- 30.03 in1016.9 mb 0.00 in0.0 mm 0.00 in0.0 mm 0.00 in0.0 mm
12:40 AM 81.5°F27.5°C 78.9°F26.1°C 92% 2.0 mph NE3.2 kmh NE -- 30.03 in1016.9 mb 0.00 in0.0 mm 0.00 in0.0 mm 0.00 in0.0 mm
12:45 AM 81.7°F27.6°C 79.1°F26.2°C 92% 2.0 mph NE3.2 kmh NE -- 30.03 in1016.9 mb 0.00 in0.0 mm 0.00 in0.0 mm 0.00 in0.0 mm
12:50 AM 81.7°F27.6°C 79.1°F26.2°C 92% 3.0 mph NE4.8 kmh NE -- 30.03 in1016.9 mb 0.00 in0.0 mm 0.00 in0.0 mm 0.00 in0.0 mm
12:55 AM 81.7°F27.6°C 79.1°F26.2°C 92% 5.0 mph E8.0 kmh E -- 30.03 in1016.9 mb 0.00 in0.0 mm 0.00 in0.0 mm 0.00 in0.0 mm
01:00 AM 81.9°F27.7°C 79.3°F26.3°C 92% 3.0 mph NW4.8 kmh NW -- 30.03 in1016.9 mb 0.00 in0.0 mm 0.00 in0.0 mm 0.00 in0.0 mm
01:05 AM 81.9°F27.7°C 79.3°F26.3°C 92% 1.0 mph NNE1.6 kmh NNE -- 30.03 in1016.9 mb 0.00 in0.0 mm 0.00 in0.0 mm 0.00 in0.0 mm
01:10 AM 81.9°F27.7°C 79.3°F26.3°C 92% 3.0 mph NE4.8 kmh NE -- 30.03 in1016.9 mb 0.00 in0.0 mm 0.00 in0.0 mm 0.00 in0.0 mm
01:15 AM 81.9°F27.7°C 79.3°F26.3°C 92% 4.0 mph NNE6.4 kmh NNE -- 30.02 in1016.6 mb 0.00 in0.0 mm 0.00 in0.0 mm 0.00 in0.0 mm
01:20 AM 81.9°F27.7°C 79.0°F26.1°C 91% 6.0 mph NE9.7 kmh NE -- 30.02 in1016.6 mb 0.00 in0.0 mm 0.00 in0.0 mm 0.00 in0.0 mm
01:25 AM 81.9°F27.7°C 79.0°F26.1°C 91% 4.0 mph NNE6.4 kmh NNE -- 30.01 in1016.3 mb 0.00 in0.0 mm 0.00 in0.0 mm 0.00 in0.0 mm
01:30 AM 81.9°F27.7°C 79.0°F26.1°C 91% 5.0 mph ENE8.0 kmh ENE -- 30.01 in1016.3 mb 0.00 in0.0 mm 0.00 in0.0 mm 0.00 in0.0 mm
01:35 AM 81.9°F27.7°C 78.6°F25.9°C 90% 3.0 mph ESE4.8 kmh ESE -- 30.01 in1016.3 mb 0.00 in0.0 mm 0.00 in0.0 mm 0.00 in0.0 mm
01:40 AM 81.9°F27.7°C 78.6°F25.9°C 90% 2.0 mph NNE3.2 kmh NNE -- 30.01 in1016.3 mb 0.00 in0.0 mm 0.00 in0.0 mm 0.00 in0.0 mm
01:45 AM 82.0°F27.8°C 78.8°F26.0°C 90% 1.0 mph ENE1.6 kmh ENE -- 30.01 in1016.3 mb 0.00 in0.0 mm 0.00 in0.0 mm 0.00 in0.0 mm
01:50 AM 81.9°F27.7°C 78.6°F25.9°C 90% 5.0 mph ENE8.0 kmh ENE -- 30.00 in1015.9 mb 0.00 in0.0 mm 0.00 in0.0 mm 0.00 in0.0 mm
01:55 AM 81.9°F27.7°C 78.6°F25.9°C 90% 2.0 mph NNE3.2 kmh NNE -- 30.00 in1015.9 mb 0.00 in0.0 mm 0.00 in0.0 mm 0.00 in0.0 mm
02:00 AM 81.7°F27.6°C 78.5°F25.8°C 90% 3.0 mph NNW4.8 kmh NNW -- 30.00 in1015.9 mb 0.00 in0.0 mm 0.00 in0.0 mm 0.00 in0.0 mm
02:05 AM 81.7°F27.6°C 78.5°F25.8°C 90% 2.0 mph NNE3.2 kmh NNE -- 30.00 in1015.9 mb 0.00 in0.0 mm 0.00 in0.0 mm 0.00 in0.0 mm
02:10 AM 81.5°F27.5°C 78.3°F25.7°C 90% 2.0 mph NE3.2 kmh NE -- 29.99 in1015.6 mb 0.00 in0.0 mm 0.00 in0.0 mm 0.00 in0.0 mm
02:15 AM 81.3°F27.4°C 78.4°F25.8°C 91% 1.0 mph NNE1.6 kmh NNE -- 29.99 in1015.6 mb 0.00 in0.0 mm 0.00 in0.0 mm 0.00 in0.0 mm
02:20 AM 81.1°F27.3°C 78.3°F25.7°C 91% 4.0 mph NNE6.4 kmh NNE -- 29.99 in1015.6 mb 0.00 in0.0 mm 0.00 in0.0 mm 0.00 in0.0 mm
02:25 AM 81.1°F27.3°C 78.3°F25.7°C 91% 5.0 mph NNE8.0 kmh NNE -- 29.98 in1015.2 mb 0.00 in0.0 mm 0.00 in0.0 mm 0.00 in0.0 mm
02:30 AM 81.1°F27.3°C 78.6°F25.9°C 92% 2.0 mph NNE3.2 kmh NNE -- 29.98 in1015.2 mb 0.00 in0.0 mm 0.00 in0.0 mm 0.00 in0.0 mm
02:35 AM 81.1°F27.3°C 78.6°F25.9°C 92% 3.0 mph NNW4.8 kmh NNW -- 29.98 in1015.2 mb 0.00 in0.0 mm 0.00 in0.0 mm 0.00 in0.0 mm
02:50 AM 81.0°F27.2°C 78.4°F25.8°C 92% 4.0 mph NNW6.4 kmh NNW -- 29.98 in1015.2 mb 0.00 in0.0 mm 0.00 in0.0 mm 0.00 in0.0 mm
03:00 AM 80.8°F27.1°C 78.2°F25.7°C 92% 4.0 mph ENE6.4 kmh ENE -- 29.97 in1014.9 mb 0.00 in0.0 mm 0.00 in0.0 mm 0.00 in0.0 mm
03:10 AM 80.8°F27.1°C 78.2°F25.7°C 92% 2.0 mph NNW3.2 kmh NNW -- 29.98 in1015.2 mb 0.00 in0.0 mm 0.00 in0.0 mm 0.00 in0.0 mm
03:20 AM 80.8°F27.1°C 78.2°F25.7°C 92% 1.0 mph NNW1.6 kmh NNW -- 29.97 in1014.9 mb 0.00 in0.0 mm 0.00 in0.0 mm 0.00 in0.0 mm
03:30 AM 80.6°F27.0°C 78.1°F25.6°C 92% 4.0 mph NE6.4 kmh NE -- 29.97 in1014.9 mb 0.00 in0.0 mm 0.00 in0.0 mm 0.00 in0.0 mm
03:35 AM 80.6°F27.0°C 78.4°F25.8°C 93% 1.0 mph NE1.6 kmh NE -- 29.97 in1014.9 mb 0.00 in0.0 mm 0.00 in0.0 mm 0.00 in0.0 mm
03:45 AM 80.6°F27.0°C 78.4°F25.8°C 93% 1.0 mph NNE1.6 kmh NNE -- 29.98 in1015.2 mb 0.00 in0.0 mm 0.00 in0.0 mm 0.00 in0.0 mm
03:55 AM 80.6°F27.0°C 78.4°F25.8°C 93% 2.0 mph NNE3.2 kmh NNE -- 29.97 in1014.9 mb 0.00 in0.0 mm 0.00 in0.0 mm 0.00 in0.0 mm
04:00 AM 80.6°F27.0°C 78.4°F25.8°C 93% 3.0 mph NE4.8 kmh NE -- 29.98 in1015.2 mb 0.00 in0.0 mm 0.00 in0.0 mm 0.00 in0.0 mm
05:00 AM 81.3°F27.4°C 79.1°F26.2°C 93% Calm Calm -- 29.98 in1015.2 mb 0.00 in0.0 mm 0.00 in0.0 mm 0.00 in0.0 mm
05:15 AM 81.3°F27.4°C 79.1°F26.2°C 93% Calm Calm -- 29.99 in1015.6 mb 0.00 in0.0 mm 0.00 in0.0 mm 0.00 in0.0 mm
05:25 AM 81.0°F27.2°C 78.7°F25.9°C 93% 3.0 mph ENE4.8 kmh ENE -- 29.99 in1015.6 mb 0.00 in0.0 mm 0.00 in0.0 mm 0.00 in0.0 mm
05:30 AM 80.8°F27.1°C 78.6°F25.9°C 93% 2.0 mph NE3.2 kmh NE -- 29.99 in1015.6 mb 0.00 in0.0 mm 0.00 in0.0 mm 0.00 in0.0 mm
05:35 AM 81.0°F27.2°C 78.7°F25.9°C 93% 2.0 mph NNE3.2 kmh NNE -- 29.99 in1015.6 mb 0.00 in0.0 mm 0.00 in0.0 mm 0.00 in0.0 mm
05:40 AM 81.0°F27.2°C 78.7°F25.9°C 93% Calm Calm -- 29.99 in1015.6 mb 0.00 in0.0 mm 0.00 in0.0 mm 0.00 in0.0 mm
05:50 AM 81.3°F27.4°C 79.1°F26.2°C 93% 2.0 mph NNE3.2 kmh NNE -- 30.00 in1015.9 mb 0.00 in0.0 mm 0.00 in0.0 mm 0.00 in0.0 mm
05:55 AM 81.1°F27.3°C 78.9°F26.1°C 93% 1.0 mph NE1.6 kmh NE -- 30.00 in1015.9 mb 0.00 in0.0 mm 0.00 in0.0 mm 0.00 in0.0 mm
06:00 AM 81.1°F27.3°C 78.9°F26.1°C 93% 3.0 mph NNE4.8 kmh NNE -- 29.99 in1015.6 mb 0.00 in0.0 mm 0.00 in0.0 mm 0.00 in0.0 mm
06:05 AM 81.1°F27.3°C 78.9°F26.1°C 93% 1.0 mph NNE1.6 kmh NNE -- 29.99 in1015.6 mb 0.00 in0.0 mm 0.00 in0.0 mm 0.00 in0.0 mm
06:20 AM 81.1°F27.3°C 78.9°F26.1°C 93% 1.0 mph NE1.6 kmh NE -- 30.00 in1015.9 mb 0.00 in0.0 mm 0.00 in0.0 mm 0.00 in0.0 mm
06:25 AM 81.3°F27.4°C 79.1°F26.2°C 93% Calm Calm -- 29.99 in1015.6 mb 0.00 in0.0 mm 0.00 in0.0 mm 0.00 in0.0 mm
06:35 AM 81.5°F27.5°C 79.3°F26.3°C 93% 1.0 mph ENE1.6 kmh ENE -- 29.99 in1015.6 mb 0.00 in0.0 mm 0.00 in0.0 mm 0.00 in0.0 mm
06:40 AM 81.5°F27.5°C 79.3°F26.3°C 93% 2.0 mph E3.2 kmh E -- 29.99 in1015.6 mb 0.00 in0.0 mm 0.00 in0.0 mm 0.00 in0.0 mm
06:45 AM 81.7°F27.6°C 79.5°F26.4°C 93% Calm Calm -- 30.00 in1015.9 mb 0.00 in0.0 mm 0.00 in0.0 mm 0.00 in0.0 mm
06:55 AM 82.0°F27.8°C 79.8°F26.6°C 93% 2.0 mph ENE3.2 kmh ENE -- 30.00 in1015.9 mb 0.00 in0.0 mm 0.00 in0.0 mm 0.00 in0.0 mm
07:00 AM 82.6°F28.1°C 80.0°F26.7°C 92% 3.0 mph E4.8 kmh E -- 30.00 in1015.9 mb 0.00 in0.0 mm 0.00 in0.0 mm 0.00 in0.0 mm
07:05 AM 83.1°F28.4°C 80.6°F27.0°C 92% 3.0 mph NE4.8 kmh NE -- 30.00 in1015.9 mb 0.00 in0.0 mm 0.00 in0.0 mm 0.00 in0.0 mm
07:10 AM 84.0°F28.9°C 80.8°F27.1°C 90% 5.0 mph ENE8.0 kmh ENE -- 30.00 in1015.9 mb 0.00 in0.0 mm 0.00 in0.0 mm 0.00 in0.0 mm
07:15 AM 84.4°F29.1°C 81.1°F27.3°C 90% 3.0 mph 4.8 kmh -- 30.01 in1016.3 mb 0.00 in0.0 mm 0.00 in0.0 mm 0.00 in0.0 mm
07:20 AM 84.7°F29.3°C 81.1°F27.3°C 89% 3.0 mph NE4.8 kmh NE -- 30.00 in1015.9 mb 0.00 in0.0 mm 0.00 in0.0 mm 0.00 in0.0 mm
07:25 AM 85.3°F29.6°C 81.3°F27.4°C 88% 6.0 mph NE9.7 kmh NE -- 30.00 in1015.9 mb 0.00 in0.0 mm 0.00 in0.0 mm 0.00 in0.0 mm
07:30 AM 85.8°F29.9°C 81.5°F27.5°C 87% 4.0 mph NE6.4 kmh NE -- 30.01 in1016.3 mb 0.00 in0.0 mm 0.00 in0.0 mm 0.00 in0.0 mm
07:35 AM 86.7°F30.4°C 81.7°F27.6°C 85% 7.0 mph ENE11.3 kmh ENE -- 30.01 in1016.3 mb 0.00 in0.0 mm 0.00 in0.0 mm 0.00 in0.0 mm
07:40 AM 86.5°F30.3°C 81.5°F27.5°C 85% 4.0 mph NE6.4 kmh NE -- 30.01 in1016.3 mb 0.00 in0.0 mm 0.00 in0.0 mm 0.00 in0.0 mm
07:45 AM 87.1°F30.6°C 81.7°F27.6°C 84% 5.0 mph ENE8.0 kmh ENE -- 30.01 in1016.3 mb 0.00 in0.0 mm 0.00 in0.0 mm 0.00 in0.0 mm
07:50 AM 86.7°F30.4°C 81.3°F27.4°C 84% 7.0 mph ENE11.3 kmh ENE -- 30.01 in1016.3 mb 0.00 in0.0 mm 0.00 in0.0 mm 0.00 in0.0 mm
07:55 AM 86.0°F30.0°C 81.0°F27.2°C 85% 2.0 mph NNE3.2 kmh NNE -- 30.01 in1016.3 mb 0.00 in0.0 mm 0.00 in0.0 mm 0.00 in0.0 mm
08:00 AM 85.6°F29.8°C 81.3°F27.4°C 87% 3.0 mph ENE4.8 kmh ENE -- 30.01 in1016.3 mb 0.00 in0.0 mm 0.00 in0.0 mm 0.00 in0.0 mm
08:05 AM 84.6°F29.2°C 81.0°F27.2°C 89% 4.0 mph NE6.4 kmh NE -- 30.01 in1016.3 mb 0.00 in0.0 mm 0.00 in0.0 mm 0.00 in0.0 mm
08:10 AM 84.4°F29.1°C 80.8°F27.1°C 89% 6.0 mph ENE9.7 kmh ENE -- 30.01 in1016.3 mb 0.00 in0.0 mm 0.00 in0.0 mm 0.00 in0.0 mm
08:15 AM 84.6°F29.2°C 81.0°F27.2°C 89% 2.0 mph ENE3.2 kmh ENE -- 30.01 in1016.3 mb 0.00 in0.0 mm 0.00 in0.0 mm 0.00 in0.0 mm
08:20 AM 85.1°F29.5°C 81.1°F27.3°C 88% 4.0 mph NNE6.4 kmh NNE -- 30.01 in1016.3 mb 0.00 in0.0 mm 0.00 in0.0 mm 0.00 in0.0 mm
08:30 AM 84.2°F29.0°C 79.9°F26.6°C 87% 8.0 mph NNW12.9 kmh NNW -- 30.01 in1016.3 mb 0.00 in0.0 mm 0.00 in0.0 mm 0.00 in0.0 mm
08:35 AM 83.5°F28.6°C 78.8°F26.0°C 86% 7.0 mph ESE11.3 kmh ESE -- 30.02 in1016.6 mb 0.00 in0.0 mm 0.00 in0.0 mm 0.00 in0.0 mm
08:40 AM 83.7°F28.7°C 79.0°F26.1°C 86% 4.0 mph NE6.4 kmh NE -- 30.01 in1016.3 mb 0.00 in0.0 mm 0.00 in0.0 mm 0.00 in0.0 mm
08:45 AM 83.1°F28.4°C 78.5°F25.8°C 86% 4.0 mph NE6.4 kmh NE -- 30.01 in1016.3 mb 0.00 in0.0 mm 0.00 in0.0 mm 0.00 in0.0 mm
08:50 AM 83.8°F28.8°C 78.8°F26.0°C 85% 4.0 mph E6.4 kmh E -- 30.01 in1016.3 mb 0.00 in0.0 mm 0.00 in0.0 mm 0.00 in0.0 mm
08:55 AM 84.4°F29.1°C 78.7°F25.9°C 83% 3.0 mph NE4.8 kmh NE -- 30.01 in1016.3 mb 0.00 in0.0 mm 0.00 in0.0 mm 0.00 in0.0 mm
09:00 AM 85.5°F29.7°C 79.3°F26.3°C 82% 3.0 mph NE4.8 kmh NE -- 30.01 in1016.3 mb 0.00 in0.0 mm 0.00 in0.0 mm 0.00 in0.0 mm
09:05 AM 86.0°F30.0°C 79.9°F26.6°C 82% 10.0 mph NNE16.1 kmh NNE -- 30.01 in1016.3 mb 0.00 in0.0 mm 0.00 in0.0 mm 0.00 in0.0 mm
09:10 AM 86.7°F30.4°C 80.2°F26.8°C 81% 4.0 mph NW6.4 kmh NW -- 30.01 in1016.3 mb 0.00 in0.0 mm 0.00 in0.0 mm 0.00 in0.0 mm
09:15 AM 87.1°F30.6°C 81.3°F27.4°C 83% 2.0 mph NNE3.2 kmh NNE -- 30.02 in1016.6 mb 0.00 in0.0 mm 0.00 in0.0 mm 0.00 in0.0 mm
09:20 AM 87.8°F31.0°C 81.6°F27.6°C 82% 6.0 mph NNE9.7 kmh NNE -- 30.01 in1016.3 mb 0.00 in0.0 mm 0.00 in0.0 mm 0.00 in0.0 mm
09:25 AM 88.0°F31.1°C 81.4°F27.4°C 81% 6.0 mph ENE9.7 kmh ENE -- 30.01 in1016.3 mb 0.00 in0.0 mm 0.00 in0.0 mm 0.00 in0.0 mm
09:30 AM 88.5°F31.4°C 82.7°F28.2°C 83% 5.0 mph NE8.0 kmh NE -- 30.02 in1016.6 mb 0.00 in0.0 mm 0.00 in0.0 mm 0.00 in0.0 mm
09:35 AM 89.6°F32.0°C 82.6°F28.1°C 80% 7.0 mph ENE11.3 kmh ENE -- 30.02 in1016.6 mb 0.00 in0.0 mm 0.00 in0.0 mm 0.00 in0.0 mm
09:40 AM 88.5°F31.4°C 82.0°F27.8°C 81% 8.0 mph ENE12.9 kmh ENE -- 30.01 in1016.3 mb 0.00 in0.0 mm 0.00 in0.0 mm 0.00 in0.0 mm
09:45 AM 87.8°F31.0°C 81.6°F27.6°C 82% 3.0 mph NE4.8 kmh NE -- 30.02 in1016.6 mb 0.00 in0.0 mm 0.00 in0.0 mm 0.00 in0.0 mm
09:50 AM 88.0°F31.1°C 81.0°F27.2°C 80% 11.0 mph NNE17.7 kmh NNE -- 30.02 in1016.6 mb 0.00 in0.0 mm 0.00 in0.0 mm 0.00 in0.0 mm
09:55 AM 89.2°F31.8°C 81.5°F27.5°C 78% 12.0 mph E19.3 kmh E -- 30.02 in1016.6 mb 0.00 in0.0 mm 0.00 in0.0 mm 0.00 in0.0 mm
10:00 AM 88.9°F31.6°C 80.8°F27.1°C 77% 5.0 mph NNW8.0 kmh NNW -- 30.02 in1016.6 mb 0.00 in0.0 mm 0.00 in0.0 mm 0.00 in0.0 mm
10:05 AM 89.8°F32.1°C 81.6°F27.6°C 77% 7.0 mph ENE11.3 kmh ENE -- 30.02 in1016.6 mb 0.00 in0.0 mm 0.00 in0.0 mm 0.00 in0.0 mm
10:10 AM 89.4°F31.9°C 81.3°F27.4°C 77% 9.0 mph NE14.5 kmh NE -- 30.03 in1016.9 mb 0.00 in0.0 mm 0.00 in0.0 mm 0.00 in0.0 mm
10:15 AM 89.1°F31.7°C 81.3°F27.4°C 78% 7.0 mph NE11.3 kmh NE -- 30.03 in1016.9 mb 0.00 in0.0 mm 0.00 in0.0 mm 0.00 in0.0 mm
10:20 AM 89.2°F31.8°C 81.1°F27.3°C 77% 7.0 mph ENE11.3 kmh ENE -- 30.02 in1016.6 mb 0.00 in0.0 mm 0.00 in0.0 mm 0.00 in0.0 mm
10:25 AM 89.8°F32.1°C 81.2°F27.3°C 76% 10.0 mph E16.1 kmh E -- 30.02 in1016.6 mb 0.00 in0.0 mm 0.00 in0.0 mm 0.00 in0.0 mm
10:30 AM 88.5°F31.4°C 80.4°F26.9°C 77% 4.0 mph NE6.4 kmh NE -- 30.03 in1016.9 mb 0.00 in0.0 mm 0.00 in0.0 mm 0.00 in0.0 mm
10:35 AM 89.2°F31.8°C 80.7°F27.1°C 76% 8.0 mph ENE12.9 kmh ENE -- 30.03 in1016.9 mb 0.00 in0.0 mm 0.00 in0.0 mm 0.00 in0.0 mm
10:40 AM 88.5°F31.4°C 80.8°F27.1°C 78% 14.0 mph ENE22.5 kmh ENE -- 30.02 in1016.6 mb 0.00 in0.0 mm 0.00 in0.0 mm 0.00 in0.0 mm
10:45 AM 89.2°F31.8°C 81.1°F27.3°C 77% 7.0 mph E11.3 kmh E -- 30.03 in1016.9 mb 0.00 in0.0 mm 0.00 in0.0 mm 0.00 in0.0 mm
10:50 AM 89.1°F31.7°C 80.9°F27.2°C 77% 4.0 mph NE6.4 kmh NE -- 30.03 in1016.9 mb 0.00 in0.0 mm 0.00 in0.0 mm 0.00 in0.0 mm
10:55 AM 89.8°F32.1°C 80.8°F27.1°C 75% 9.0 mph E14.5 kmh E -- 30.02 in1016.6 mb 0.00 in0.0 mm 0.00 in0.0 mm 0.00 in0.0 mm
11:00 AM 89.1°F31.7°C 80.5°F26.9°C 76% 9.0 mph NE14.5 kmh NE -- 30.02 in1016.6 mb 0.00 in0.0 mm 0.00 in0.0 mm 0.00 in0.0 mm
11:05 AM 90.1°F32.3°C 80.8°F27.1°C 74% 13.0 mph NNE20.9 kmh NNE -- 30.02 in1016.6 mb 0.00 in0.0 mm 0.00 in0.0 mm 0.00 in0.0 mm
11:10 AM 90.0°F32.2°C 80.6°F27.0°C 74% 11.0 mph ENE17.7 kmh ENE -- 30.02 in1016.6 mb 0.00 in0.0 mm 0.00 in0.0 mm 0.00 in0.0 mm
11:15 AM 90.1°F32.3°C 80.8°F27.1°C 74% 8.0 mph NNE12.9 kmh NNE -- 30.02 in1016.6 mb 0.00 in0.0 mm 0.00 in0.0 mm 0.00 in0.0 mm
11:20 AM 89.1°F31.7°C 80.5°F26.9°C 76% 6.0 mph NE9.7 kmh NE -- 30.02 in1016.6 mb 0.00 in0.0 mm 0.00 in0.0 mm 0.00 in0.0 mm
11:25 AM 90.7°F32.6°C 81.3°F27.4°C 74% 11.0 mph ENE17.7 kmh ENE -- 30.02 in1016.6 mb 0.00 in0.0 mm 0.00 in0.0 mm 0.00 in0.0 mm
11:30 AM 90.0°F32.2°C 80.6°F27.0°C 74% 9.0 mph NNE14.5 kmh NNE -- 30.01 in1016.3 mb 0.00 in0.0 mm 0.00 in0.0 mm 0.00 in0.0 mm
11:35 AM 90.0°F32.2°C 80.6°F27.0°C 74% 17.0 mph ENE27.4 kmh ENE -- 30.01 in1016.3 mb 0.00 in0.0 mm 0.00 in0.0 mm 0.00 in0.0 mm
11:40 AM 89.2°F31.8°C 80.3°F26.8°C 75% 9.0 mph ESE14.5 kmh ESE -- 30.01 in1016.3 mb 0.00 in0.0 mm 0.00 in0.0 mm 0.00 in0.0 mm
11:45 AM 90.1°F32.3°C 80.8°F27.1°C 74% 12.0 mph NNE19.3 kmh NNE -- 30.01 in1016.3 mb 0.00 in0.0 mm 0.00 in0.0 mm 0.00 in0.0 mm
11:50 AM 88.0°F31.1°C 80.3°F26.8°C 78% 6.0 mph NNE9.7 kmh NNE -- 30.01 in1016.3 mb 0.00 in0.0 mm 0.00 in0.0 mm 0.00 in0.0 mm
11:55 AM 88.2°F31.2°C 80.8°F27.1°C 79% 7.0 mph NE11.3 kmh NE -- 30.01 in1016.3 mb 0.00 in0.0 mm 0.00 in0.0 mm 0.00 in0.0 mm
12:00 PM 87.6°F30.9°C 80.7°F27.1°C 80% 3.0 mph 4.8 kmh -- 30.01 in1016.3 mb 0.00 in0.0 mm 0.00 in0.0 mm 0.00 in0.0 mm
12:05 PM 88.2°F31.2°C 80.8°F27.1°C 79% 10.0 mph E16.1 kmh E -- 30.01 in1016.3 mb 0.00 in0.0 mm 0.00 in0.0 mm 0.00 in0.0 mm
12:10 PM 88.9°F31.6°C 80.4°F26.9°C 76% 11.0 mph ENE17.7 kmh ENE -- 30.01 in1016.3 mb 0.00 in0.0 mm 0.00 in0.0 mm 0.00 in0.0 mm
12:15 PM 87.8°F31.0°C 79.7°F26.5°C 77% 6.0 mph ENE9.7 kmh ENE -- 30.01 in1016.3 mb 0.00 in0.0 mm 0.00 in0.0 mm 0.00 in0.0 mm
12:20 PM 88.0°F31.1°C 80.3°F26.8°C 78% 8.0 mph ENE12.9 kmh ENE -- 30.00 in1015.9 mb 0.00 in0.0 mm 0.00 in0.0 mm 0.00 in0.0 mm
12:25 PM 89.2°F31.8°C 80.7°F27.1°C 76% 10.0 mph WNW16.1 kmh WNW -- 30.00 in1015.9 mb 0.00 in0.0 mm 0.00 in0.0 mm 0.00 in0.0 mm
12:30 PM 89.4°F31.9°C 80.9°F27.2°C 76% 14.0 mph E22.5 kmh E -- 30.00 in1015.9 mb 0.00 in0.0 mm 0.00 in0.0 mm 0.00 in0.0 mm
12:35 PM 89.6°F32.0°C 81.1°F27.3°C 76% 12.0 mph NE19.3 kmh NE -- 29.99 in1015.6 mb 0.00 in0.0 mm 0.00 in0.0 mm 0.00 in0.0 mm
12:40 PM 88.0°F31.1°C 79.9°F26.6°C 77% 5.0 mph 8.0 kmh -- 29.99 in1015.6 mb 0.00 in0.0 mm 0.00 in0.0 mm 0.00 in0.0 mm
12:45 PM 89.2°F31.8°C 80.7°F27.1°C 76% 8.0 mph NE12.9 kmh NE -- 29.99 in1015.6 mb 0.00 in0.0 mm 0.00 in0.0 mm 0.00 in0.0 mm
12:50 PM 90.1°F32.3°C 80.8°F27.1°C 74% 10.0 mph ESE16.1 kmh ESE -- 29.99 in1015.6 mb 0.00 in0.0 mm 0.00 in0.0 mm 0.00 in0.0 mm
12:55 PM 90.5°F32.5°C 80.7°F27.1°C 73% 10.0 mph NE16.1 kmh NE -- 29.99 in1015.6 mb 0.00 in0.0 mm 0.00 in0.0 mm 0.00 in0.0 mm
01:00 PM 90.9°F32.7°C 81.0°F27.2°C 73% 16.0 mph ENE25.7 kmh ENE -- 29.99 in1015.6 mb 0.00 in0.0 mm 0.00 in0.0 mm 0.00 in0.0 mm
01:05 PM 88.7°F31.5°C 79.8°F26.6°C 75% 8.0 mph NNW12.9 kmh NNW -- 29.98 in1015.2 mb 0.00 in0.0 mm 0.00 in0.0 mm 0.00 in0.0 mm
01:10 PM 89.4°F31.9°C 80.9°F27.2°C 76% 4.0 mph ENE6.4 kmh ENE -- 29.98 in1015.2 mb 0.00 in0.0 mm 0.00 in0.0 mm 0.00 in0.0 mm
01:15 PM 90.5°F32.5°C 81.1°F27.3°C 74% 6.0 mph NNE9.7 kmh NNE -- 29.98 in1015.2 mb 0.00 in0.0 mm 0.00 in0.0 mm 0.00 in0.0 mm
01:20 PM 89.6°F32.0°C 80.2°F26.8°C 74% 5.0 mph NNE8.0 kmh NNE -- 29.98 in1015.2 mb 0.00 in0.0 mm 0.00 in0.0 mm 0.00 in0.0 mm
01:25 PM 89.2°F31.8°C 80.3°F26.8°C 75% 9.0 mph NE14.5 kmh NE -- 29.98 in1015.2 mb 0.00 in0.0 mm 0.00 in0.0 mm 0.00 in0.0 mm
01:30 PM 88.2°F31.2°C 79.7°F26.5°C 76% 8.0 mph NE12.9 kmh NE -- 29.98 in1015.2 mb 0.00 in0.0 mm 0.00 in0.0 mm 0.00 in0.0 mm
01:35 PM 88.5°F31.4°C 80.8°F27.1°C 78% 4.0 mph 6.4 kmh -- 29.98 in1015.2 mb 0.00 in0.0 mm 0.00 in0.0 mm 0.00 in0.0 mm
01:40 PM 89.4°F31.9°C 81.7°F27.6°C 78% 6.0 mph NNE9.7 kmh NNE -- 29.98 in1015.2 mb 0.00 in0.0 mm 0.00 in0.0 mm 0.00 in0.0 mm
01:45 PM 88.5°F31.4°C 81.2°F27.3°C 79% 10.0 mph ENE16.1 kmh ENE -- 29.98 in1015.2 mb 0.00 in0.0 mm 0.00 in0.0 mm 0.00 in0.0 mm
01:50 PM 87.1°F30.6°C 80.2°F26.8°C 80% 14.0 mph ENE22.5 kmh ENE -- 29.98 in1015.2 mb 0.00 in0.0 mm 0.00 in0.0 mm 0.00 in0.0 mm
01:55 PM 87.1°F30.6°C 80.6°F27.0°C 81% 9.0 mph E14.5 kmh E -- 29.98 in1015.2 mb 0.00 in0.0 mm 0.00 in0.0 mm 0.00 in0.0 mm
02:00 PM 87.3°F30.7°C 80.7°F27.1°C 81% 10.0 mph ENE16.1 kmh ENE -- 29.98 in1015.2 mb 0.00 in0.0 mm 0.00 in0.0 mm 0.00 in0.0 mm
02:05 PM 88.5°F31.4°C 81.2°F27.3°C 79% 6.0 mph ENE9.7 kmh ENE -- 29.97 in1014.9 mb 0.00 in0.0 mm 0.00 in0.0 mm 0.00 in0.0 mm
02:10 PM 88.9°F31.6°C 80.8°F27.1°C 77% 8.0 mph NE12.9 kmh NE -- 29.97 in1014.9 mb 0.00 in0.0 mm 0.00 in0.0 mm 0.00 in0.0 mm
02:15 PM 88.0°F31.1°C 80.3°F26.8°C 78% 14.0 mph E22.5 kmh E -- 29.97 in1014.9 mb 0.00 in0.0 mm 0.00 in0.0 mm 0.00 in0.0 mm
02:20 PM 83.8°F28.8°C 76.2°F24.6°C 78% 14.0 mph ENE22.5 kmh ENE -- 29.98 in1015.2 mb 0.00 in0.0 mm 0.00 in0.0 mm 0.00 in0.0 mm
02:25 PM 79.5°F26.4°C 75.6°F24.2°C 88% 10.0 mph E16.1 kmh E -- 29.99 in1015.6 mb 0.06 in1.5 mm 0.72 in18.3 mm 0.06 in1.5 mm
02:30 PM 78.4°F25.8°C 75.6°F24.2°C 91% 6.0 mph NE9.7 kmh NE -- 29.99 in1015.6 mb 0.12 in3.0 mm 0.72 in18.3 mm 0.12 in3.0 mm
02:35 PM 77.7°F25.4°C 75.2°F24.0°C 92% 6.0 mph E9.7 kmh E -- 29.99 in1015.6 mb 0.17 in4.3 mm 0.60 in15.2 mm 0.17 in4.3 mm
02:40 PM 77.4°F25.2°C 75.2°F24.0°C 93% 6.0 mph E9.7 kmh E -- 29.98 in1015.2 mb 0.18 in4.6 mm 0.12 in3.0 mm 0.18 in4.6 mm
02:45 PM 77.7°F25.4°C 75.5°F24.2°C 93% 3.0 mph ENE4.8 kmh ENE -- 29.98 in1015.2 mb 0.20 in5.1 mm 0.24 in6.1 mm 0.20 in5.1 mm
02:50 PM 77.9°F25.5°C 75.7°F24.3°C 93% 3.0 mph NNE4.8 kmh NNE -- 29.98 in1015.2 mb 0.21 in5.3 mm 0.12 in3.0 mm 0.21 in5.3 mm
02:55 PM 79.3°F26.3°C 77.1°F25.1°C 93% 4.0 mph ENE6.4 kmh ENE -- 29.97 in1014.9 mb 0.21 in5.3 mm 0.00 in0.0 mm 0.21 in5.3 mm
03:00 PM 79.9°F26.6°C 77.3°F25.2°C 92% 5.0 mph NW8.0 kmh NW -- 29.97 in1014.9 mb 0.22 in5.6 mm 0.01 in0.3 mm 0.22 in5.6 mm
03:05 PM 80.8°F27.1°C 78.2°F25.7°C 92% 3.0 mph 4.8 kmh -- 29.97 in1014.9 mb 0.22 in5.6 mm 0.00 in0.0 mm 0.22 in5.6 mm
03:10 PM 81.3°F27.4°C 78.4°F25.8°C 91% 3.0 mph NE4.8 kmh NE -- 29.96 in1014.6 mb 0.22 in5.6 mm 0.00 in0.0 mm 0.22 in5.6 mm
03:15 PM 81.9°F27.7°C 78.3°F25.7°C 89% 7.0 mph ENE11.3 kmh ENE -- 29.96 in1014.6 mb 0.22 in5.6 mm 0.00 in0.0 mm 0.22 in5.6 mm
03:20 PM 82.0°F27.8°C 78.5°F25.8°C 89% 4.0 mph NNE6.4 kmh NNE -- 29.96 in1014.6 mb 0.22 in5.6 mm 0.00 in0.0 mm 0.22 in5.6 mm
03:25 PM 82.8°F28.2°C 78.8°F26.0°C 88% 3.0 mph NNE4.8 kmh NNE -- 29.96 in1014.6 mb 0.10 in2.5 mm 0.00 in0.0 mm 0.22 in5.6 mm
03:30 PM 83.1°F28.4°C 78.8°F26.0°C 87% 7.0 mph E11.3 kmh E -- 29.96 in1014.6 mb 0.10 in2.5 mm 0.00 in0.0 mm 0.22 in5.6 mm
03:35 PM 83.3°F28.5°C 78.7°F25.9°C 86% 10.0 mph NE16.1 kmh NE -- 29.96 in1014.6 mb 0.04 in1.0 mm 0.00 in0.0 mm 0.22 in5.6 mm
03:40 PM 83.8°F28.8°C 78.8°F26.0°C 85% 3.0 mph NE4.8 kmh NE -- 29.96 in1014.6 mb 0.04 in1.0 mm 0.00 in0.0 mm 0.22 in5.6 mm
03:45 PM 84.4°F29.1°C 78.7°F25.9°C 83% 6.0 mph NE9.7 kmh NE -- 29.96 in1014.6 mb 0.01 in0.3 mm 0.00 in0.0 mm 0.22 in5.6 mm
03:50 PM 84.2°F29.0°C 78.8°F26.0°C 84% 5.0 mph NE8.0 kmh NE -- 29.96 in1014.6 mb 0.01 in0.3 mm 0.00 in0.0 mm 0.22 in5.6 mm
03:55 PM 84.2°F29.0°C 78.5°F25.8°C 83% 7.0 mph NE11.3 kmh NE -- 29.96 in1014.6 mb 0.00 in0.0 mm 0.00 in0.0 mm 0.22 in5.6 mm
04:00 PM 84.2°F29.0°C 78.8°F26.0°C 84% 4.0 mph NE6.4 kmh NE -- 29.96 in1014.6 mb 0.00 in0.0 mm 0.00 in0.0 mm 0.22 in5.6 mm
04:05 PM 84.7°F29.3°C 79.4°F26.3°C 84% 5.0 mph ENE8.0 kmh ENE -- 29.96 in1014.6 mb 0.00 in0.0 mm 0.00 in0.0 mm 0.22 in5.6 mm
04:10 PM 84.7°F29.3°C 78.6°F25.9°C 82% 5.0 mph NNE8.0 kmh NNE -- 29.96 in1014.6 mb 0.00 in0.0 mm 0.00 in0.0 mm 0.22 in5.6 mm
04:15 PM 84.6°F29.2°C 78.8°F26.0°C 83% 2.0 mph NNE3.2 kmh NNE -- 29.96 in1014.6 mb 0.00 in0.0 mm 0.00 in0.0 mm 0.22 in5.6 mm
04:20 PM 85.3°F29.6°C 79.2°F26.2°C 82% 3.0 mph NE4.8 kmh NE -- 29.95 in1014.2 mb 0.00 in0.0 mm 0.00 in0.0 mm 0.22 in5.6 mm
04:25 PM 85.3°F29.6°C 79.9°F26.6°C 84% 4.0 mph NNE6.4 kmh NNE -- 29.96 in1014.6 mb 0.00 in0.0 mm 0.00 in0.0 mm 0.22 in5.6 mm
04:30 PM 84.9°F29.4°C 79.2°F26.2°C 83% 6.0 mph NNE9.7 kmh NNE -- 29.96 in1014.6 mb 0.00 in0.0 mm 0.00 in0.0 mm 0.22 in5.6 mm
04:35 PM 85.1°F29.5°C 79.4°F26.3°C 83% 6.0 mph ENE9.7 kmh ENE -- 29.95 in1014.2 mb 0.00 in0.0 mm 0.00 in0.0 mm 0.22 in5.6 mm
04:40 PM 85.3°F29.6°C 79.5°F26.4°C 83% 6.0 mph ENE9.7 kmh ENE -- 29.96 in1014.6 mb 0.00 in0.0 mm 0.00 in0.0 mm 0.22 in5.6 mm
04:45 PM 85.5°F29.7°C 79.0°F26.1°C 81% 6.0 mph NE9.7 kmh NE -- 29.95 in1014.2 mb 0.00 in0.0 mm 0.00 in0.0 mm 0.22 in5.6 mm
04:50 PM 85.6°F29.8°C 79.1°F26.2°C 81% 5.0 mph NNE8.0 kmh NNE -- 29.95 in1014.2 mb 0.00 in0.0 mm 0.00 in0.0 mm 0.22 in5.6 mm
04:55 PM 85.6°F29.8°C 78.8°F26.0°C 80% 2.0 mph NNE3.2 kmh NNE -- 29.96 in1014.6 mb 0.00 in0.0 mm 0.00 in0.0 mm 0.22 in5.6 mm
05:00 PM 85.8°F29.9°C 78.9°F26.1°C 80% 6.0 mph ENE9.7 kmh ENE -- 29.96 in1014.6 mb 0.00 in0.0 mm 0.00 in0.0 mm 0.22 in5.6 mm
05:05 PM 85.5°F29.7°C 78.6°F25.9°C 80% 6.0 mph ENE9.7 kmh ENE -- 29.96 in1014.6 mb 0.00 in0.0 mm 0.00 in0.0 mm 0.22 in5.6 mm
05:10 PM 85.6°F29.8°C 78.8°F26.0°C 80% 5.0 mph NE8.0 kmh NE -- 29.96 in1014.6 mb 0.00 in0.0 mm 0.00 in0.0 mm 0.22 in5.6 mm
05:15 PM 85.6°F29.8°C 78.4°F25.8°C 79% 4.0 mph E6.4 kmh E -- 29.96 in1014.6 mb 0.00 in0.0 mm 0.00 in0.0 mm 0.22 in5.6 mm
05:20 PM 85.6°F29.8°C 78.0°F25.6°C 78% 4.0 mph 6.4 kmh -- 29.96 in1014.6 mb 0.00 in0.0 mm 0.00 in0.0 mm 0.22 in5.6 mm
05:25 PM 85.8°F29.9°C 78.2°F25.7°C 78% 5.0 mph E8.0 kmh E -- 29.96 in1014.6 mb 0.00 in0.0 mm 0.00 in0.0 mm 0.22 in5.6 mm
05:30 PM 85.6°F29.8°C 78.0°F25.6°C 78% 4.0 mph ENE6.4 kmh ENE -- 29.96 in1014.6 mb 0.00 in0.0 mm 0.00 in0.0 mm 0.22 in5.6 mm
05:35 PM 85.8°F29.9°C 78.2°F25.7°C 78% 5.0 mph NNE8.0 kmh NNE -- 29.96 in1014.6 mb 0.00 in0.0 mm 0.00 in0.0 mm 0.22 in5.6 mm
05:40 PM 85.3°F29.6°C 77.3°F25.2°C 77% 10.0 mph NE16.1 kmh NE -- 29.97 in1014.9 mb 0.00 in0.0 mm 0.00 in0.0 mm 0.22 in5.6 mm
05:45 PM 85.1°F29.5°C 77.5°F25.3°C 78% 6.0 mph NE9.7 kmh NE -- 29.97 in1014.9 mb 0.00 in0.0 mm 0.00 in0.0 mm 0.22 in5.6 mm
05:50 PM 85.1°F29.5°C 77.5°F25.3°C 78% 4.0 mph ENE6.4 kmh ENE -- 29.97 in1014.9 mb 0.00 in0.0 mm 0.00 in0.0 mm 0.22 in5.6 mm
05:55 PM 84.9°F29.4°C 77.7°F25.4°C 79% 6.0 mph NE9.7 kmh NE -- 29.96 in1014.6 mb 0.00 in0.0 mm 0.00 in0.0 mm 0.22 in5.6 mm
06:00 PM 84.6°F29.2°C 77.7°F25.4°C 80% 9.0 mph ENE14.5 kmh ENE -- 29.96 in1014.6 mb 0.00 in0.0 mm 0.00 in0.0 mm 0.22 in5.6 mm
06:05 PM 84.2°F29.0°C 77.7°F25.4°C 81% 6.0 mph NE9.7 kmh NE -- 29.97 in1014.9 mb 0.00 in0.0 mm 0.00 in0.0 mm 0.22 in5.6 mm
06:10 PM 84.4°F29.1°C 77.9°F25.5°C 81% 4.0 mph WNW6.4 kmh WNW -- 29.96 in1014.6 mb 0.00 in0.0 mm 0.00 in0.0 mm 0.22 in5.6 mm
06:15 PM 84.4°F29.1°C 78.3°F25.7°C 82% 2.0 mph NNE3.2 kmh NNE -- 29.96 in1014.6 mb 0.00 in0.0 mm 0.00 in0.0 mm 0.22 in5.6 mm
06:20 PM 83.8°F28.8°C 78.1°F25.6°C 83% 10.0 mph ENE16.1 kmh ENE -- 29.96 in1014.6 mb 0.00 in0.0 mm 0.00 in0.0 mm 0.22 in5.6 mm
06:25 PM 83.8°F28.8°C 78.5°F25.8°C 84% 6.0 mph NNE9.7 kmh NNE -- 29.97 in1014.9 mb 0.00 in0.0 mm 0.00 in0.0 mm 0.22 in5.6 mm
06:30 PM 83.8°F28.8°C 78.5°F25.8°C 84% 4.0 mph ENE6.4 kmh ENE -- 29.97 in1014.9 mb 0.00 in0.0 mm 0.00 in0.0 mm 0.22 in5.6 mm
06:35 PM 83.7°F28.7°C 78.7°F25.9°C 85% 5.0 mph NE8.0 kmh NE -- 29.97 in1014.9 mb 0.00 in0.0 mm 0.00 in0.0 mm 0.22 in5.6 mm
06:40 PM 83.5°F28.6°C 78.5°F25.8°C 85% 8.0 mph NE12.9 kmh NE -- 29.97 in1014.9 mb 0.00 in0.0 mm 0.00 in0.0 mm 0.22 in5.6 mm
06:45 PM 83.5°F28.6°C 78.8°F26.0°C 86% 3.0 mph NE4.8 kmh NE -- 29.97 in1014.9 mb 0.00 in0.0 mm 0.00 in0.0 mm 0.22 in5.6 mm
06:50 PM 83.5°F28.6°C 78.8°F26.0°C 86% 2.0 mph NE3.2 kmh NE -- 29.97 in1014.9 mb 0.00 in0.0 mm 0.00 in0.0 mm 0.22 in5.6 mm
06:55 PM 83.3°F28.5°C 79.0°F26.1°C 87% 6.0 mph NE9.7 kmh NE -- 29.97 in1014.9 mb 0.00 in0.0 mm 0.00 in0.0 mm 0.22 in5.6 mm
07:00 PM 83.1°F28.4°C 78.8°F26.0°C 87% 4.0 mph NNE6.4 kmh NNE -- 29.97 in1014.9 mb 0.00 in0.0 mm 0.00 in0.0 mm 0.22 in5.6 mm
07:05 PM 82.9°F28.3°C 79.0°F26.1°C 88% 4.0 mph NE6.4 kmh NE -- 29.97 in1014.9 mb 0.00 in0.0 mm 0.00 in0.0 mm 0.22 in5.6 mm
07:10 PM 82.9°F28.3°C 79.0°F26.1°C 88% 2.0 mph NNE3.2 kmh NNE -- 29.97 in1014.9 mb 0.00 in0.0 mm 0.00 in0.0 mm 0.22 in5.6 mm
07:15 PM 82.8°F28.2°C 78.8°F26.0°C 88% 2.0 mph NNE3.2 kmh NNE -- 29.97 in1014.9 mb 0.00 in0.0 mm 0.00 in0.0 mm 0.22 in5.6 mm
07:20 PM 82.8°F28.2°C 78.8°F26.0°C 88% 6.0 mph NE9.7 kmh NE -- 29.97 in1014.9 mb 0.00 in0.0 mm 0.00 in0.0 mm 0.22 in5.6 mm
07:25 PM 82.8°F28.2°C 79.2°F26.2°C 89% 2.0 mph NE3.2 kmh NE -- 29.97 in1014.9 mb 0.00 in0.0 mm 0.00 in0.0 mm 0.22 in5.6 mm
07:30 PM 82.6°F28.1°C 79.0°F26.1°C 89% 4.0 mph NE6.4 kmh NE -- 29.97 in1014.9 mb 0.00 in0.0 mm 0.00 in0.0 mm 0.22 in5.6 mm
07:35 PM 82.8°F28.2°C 79.2°F26.2°C 89% 5.0 mph NE8.0 kmh NE -- 29.96 in1014.6 mb 0.00 in0.0 mm 0.00 in0.0 mm 0.22 in5.6 mm
07:40 PM 82.6°F28.1°C 79.0°F26.1°C 89% 2.0 mph NNE3.2 kmh NNE -- 29.97 in1014.9 mb 0.53 in13.5 mm 6.36 in161.5 mm 0.75 in19.1 mm
07:45 PM 82.4°F28.0°C 78.8°F26.0°C 89% 4.0 mph NNE6.4 kmh NNE -- 29.97 in1014.9 mb 0.53 in13.5 mm 0.00 in0.0 mm 0.75 in19.1 mm
07:50 PM 82.4°F28.0°C 78.8°F26.0°C 89% 4.0 mph NE6.4 kmh NE -- 29.97 in1014.9 mb 0.53 in13.5 mm 0.00 in0.0 mm 0.75 in19.1 mm
07:55 PM 82.4°F28.0°C 78.5°F25.8°C 88% 6.0 mph NE9.7 kmh NE -- 29.98 in1015.2 mb 0.53 in13.5 mm 0.00 in0.0 mm 0.75 in19.1 mm
08:00 PM 82.2°F27.9°C 78.3°F25.7°C 88% 6.0 mph E9.7 kmh E -- 29.98 in1015.2 mb 0.53 in13.5 mm 0.00 in0.0 mm 0.75 in19.1 mm
08:05 PM 82.2°F27.9°C 78.3°F25.7°C 88% 3.0 mph NNE4.8 kmh NNE -- 29.99 in1015.6 mb 0.53 in13.5 mm 0.00 in0.0 mm 0.75 in19.1 mm
08:10 PM 82.6°F28.1°C 78.7°F25.9°C 88% Calm Calm -- 29.99 in1015.6 mb 0.53 in13.5 mm 0.00 in0.0 mm 0.75 in19.1 mm
08:15 PM 82.2°F27.9°C 78.3°F25.7°C 88% 3.0 mph E4.8 kmh E -- 29.99 in1015.6 mb 0.53 in13.5 mm 0.00 in0.0 mm 0.75 in19.1 mm
08:25 PM 80.1°F26.7°C 75.8°F24.3°C 87% 6.0 mph ENE9.7 kmh ENE -- 30.00 in1015.9 mb 0.54 in13.7 mm 0.06 in1.5 mm 0.76 in19.3 mm
08:30 PM 78.4°F25.8°C 75.6°F24.2°C 91% 3.0 mph NNW4.8 kmh NNW -- 30.00 in1015.9 mb 0.59 in15.0 mm 0.60 in15.2 mm 0.81 in20.6 mm
08:35 PM 78.4°F25.8°C 75.6°F24.2°C 91% 2.0 mph NNW3.2 kmh NNW -- 30.00 in1015.9 mb 0.61 in15.5 mm 0.24 in6.1 mm 0.83 in21.1 mm
08:40 PM 77.7°F25.4°C 74.9°F23.8°C 91% 3.0 mph NNW4.8 kmh NNW -- 29.99 in1015.6 mb 0.61 in15.5 mm 0.00 in0.0 mm 0.83 in21.1 mm
08:45 PM 77.9°F25.5°C 75.1°F23.9°C 91% 1.0 mph NE1.6 kmh NE -- 29.99 in1015.6 mb 0.10 in2.5 mm 0.00 in0.0 mm 0.83 in21.1 mm
08:50 PM 77.2°F25.1°C 74.7°F23.7°C 92% 3.0 mph ENE4.8 kmh ENE -- 29.99 in1015.6 mb 0.10 in2.5 mm 0.00 in0.0 mm 0.83 in21.1 mm
08:55 PM 77.0°F25.0°C 74.8°F23.8°C 93% 4.0 mph ENE6.4 kmh ENE -- 29.99 in1015.6 mb 0.10 in2.5 mm 0.00 in0.0 mm 0.83 in21.1 mm
09:00 PM 77.0°F25.0°C 74.8°F23.8°C 93% 2.0 mph NE3.2 kmh NE -- 29.99 in1015.6 mb 0.10 in2.5 mm 0.00 in0.0 mm 0.83 in21.1 mm
09:05 PM 77.2°F25.1°C 75.0°F23.9°C 93% 2.0 mph NNE3.2 kmh NNE -- 29.99 in1015.6 mb 0.11 in2.8 mm 0.12 in3.0 mm 0.84 in21.3 mm
09:10 PM 77.4°F25.2°C 75.2°F24.0°C 93% 1.0 mph NE1.6 kmh NE -- 29.99 in1015.6 mb 0.12 in3.0 mm 0.12 in3.0 mm 0.85 in21.6 mm
09:15 PM 77.7°F25.4°C 75.5°F24.2°C 93% 1.0 mph NE1.6 kmh NE -- 29.99 in1015.6 mb 0.12 in3.0 mm 0.00 in0.0 mm 0.85 in21.6 mm
09:20 PM 77.7°F25.4°C 75.5°F24.2°C 93% Calm Calm -- 30.00 in1015.9 mb 0.12 in3.0 mm 0.00 in0.0 mm 0.85 in21.6 mm
09:25 PM 77.9°F25.5°C 76.0°F24.4°C 94% Calm Calm -- 29.99 in1015.6 mb 0.04 in1.0 mm 0.00 in0.0 mm 0.85 in21.6 mm
09:35 PM 78.1°F25.6°C 76.2°F24.6°C 94% Calm Calm -- 29.99 in1015.6 mb 0.04 in1.0 mm 0.00 in0.0 mm 0.85 in21.6 mm
09:40 PM 78.1°F25.6°C 76.2°F24.6°C 94% Calm Calm -- 29.99 in1015.6 mb 0.04 in1.0 mm 0.00 in0.0 mm 0.85 in21.6 mm
09:45 PM 78.1°F25.6°C 76.2°F24.6°C 94% Calm Calm -- 29.99 in1015.6 mb 0.02 in0.5 mm 0.00 in0.0 mm 0.85 in21.6 mm
09:50 PM 77.9°F25.5°C 76.0°F24.4°C 94% 1.0 mph NNE1.6 kmh NNE -- 29.99 in1015.6 mb 0.02 in0.5 mm 0.00 in0.0 mm 0.85 in21.6 mm
09:55 PM 78.1°F25.6°C 76.2°F24.6°C 94% Calm Calm -- 29.99 in1015.6 mb 0.02 in0.5 mm 0.00 in0.0 mm 0.85 in21.6 mm
10:00 PM 78.1°F25.6°C 76.2°F24.6°C 94% Calm Calm -- 29.99 in1015.6 mb 0.02 in0.5 mm 0.00 in0.0 mm 0.85 in21.6 mm
10:05 PM 77.9°F25.5°C 76.0°F24.4°C 94% Calm Calm -- 29.99 in1015.6 mb 0.00 in0.0 mm 0.00 in0.0 mm 0.85 in21.6 mm
10:15 PM 77.7°F25.4°C 75.8°F24.3°C 94% Calm Calm -- 29.98 in1015.2 mb 0.00 in0.0 mm 0.00 in0.0 mm 0.85 in21.6 mm
10:20 PM 77.7°F25.4°C 75.8°F24.3°C 94% Calm Calm -- 29.99 in1015.6 mb 0.00 in0.0 mm 0.00 in0.0 mm 0.85 in21.6 mm
10:25 PM 77.9°F25.5°C 76.0°F24.4°C 94% Calm Calm -- 29.98 in1015.2 mb 0.00 in0.0 mm 0.00 in0.0 mm 0.85 in21.6 mm
10:35 PM 78.1°F25.6°C 76.2°F24.6°C 94% Calm Calm -- 29.98 in1015.2 mb 0.00 in0.0 mm 0.00 in0.0 mm 0.85 in21.6 mm
10:40 PM 78.1°F25.6°C 76.2°F24.6°C 94% Calm Calm -- 29.98 in1015.2 mb 0.00 in0.0 mm 0.00 in0.0 mm 0.85 in21.6 mm
10:45 PM 78.1°F25.6°C 76.2°F24.6°C 94% Calm Calm -- 29.98 in1015.2 mb 0.00 in0.0 mm 0.00 in0.0 mm 0.85 in21.6 mm
10:55 PM 78.1°F25.6°C 76.2°F24.6°C 94% 1.0 mph NNE1.6 kmh NNE -- 29.98 in1015.2 mb 0.00 in0.0 mm 0.00 in0.0 mm 0.85 in21.6 mm
11:00 PM 78.1°F25.6°C 76.2°F24.6°C 94% Calm Calm -- 29.97 in1014.9 mb 0.00 in0.0 mm 0.00 in0.0 mm 0.85 in21.6 mm
11:05 PM 78.1°F25.6°C 76.5°F24.7°C 95% Calm Calm -- 29.98 in1015.2 mb 0.00 in0.0 mm 0.00 in0.0 mm 0.85 in21.6 mm
11:10 PM 78.3°F25.7°C 76.7°F24.8°C 95% 1.0 mph NE1.6 kmh NE -- 29.98 in1015.2 mb 0.00 in0.0 mm 0.00 in0.0 mm 0.85 in21.6 mm
11:15 PM 78.3°F25.7°C 76.7°F24.8°C 95% 1.0 mph NNE1.6 kmh NNE -- 29.98 in1015.2 mb 0.00 in0.0 mm 0.00 in0.0 mm 0.85 in21.6 mm
11:20 PM 78.3°F25.7°C 76.7°F24.8°C 95% Calm Calm -- 29.98 in1015.2 mb 0.00 in0.0 mm 0.00 in0.0 mm 0.85 in21.6 mm
11:25 PM 78.4°F25.8°C 76.9°F24.9°C 95% Calm Calm -- 29.97 in1014.9 mb 0.00 in0.0 mm 0.00 in0.0 mm 0.85 in21.6 mm
11:30 PM 78.6°F25.9°C 77.1°F25.1°C 95% Calm Calm -- 29.97 in1014.9 mb 0.00 in0.0 mm 0.00 in0.0 mm 0.85 in21.6 mm
11:35 PM 79.0°F26.1°C 77.4°F25.2°C 95% 3.0 mph NW4.8 kmh NW -- 29.97 in1014.9 mb 0.00 in0.0 mm 0.00 in0.0 mm 0.85 in21.6 mm
11:40 PM 79.0°F26.1°C 77.4°F25.2°C 95% Calm Calm -- 29.97 in1014.9 mb 0.00 in0.0 mm 0.00 in0.0 mm 0.85 in21.6 mm
11:45 PM 79.2°F26.2°C 77.6°F25.3°C 95% Calm Calm -- 29.97 in1014.9 mb 0.00 in0.0 mm 0.00 in0.0 mm 0.85 in21.6 mm
11:50 PM 79.3°F26.3°C 77.8°F25.4°C 95% Calm Calm -- 29.97 in1014.9 mb 0.00 in0.0 mm 0.00 in0.0 mm 0.85 in21.6 mm
11:55 PM 79.3°F26.3°C 77.8°F25.4°C 95% Calm Calm -- 29.97 in1014.9 mb 0.00 in0.0 mm 0.00 in0.0 mm 0.85 in21.6 mm